Time;durP1;ratioP1;P1;durP2;ratioP2;P2;SDS_P1;SDS_P2;PMS_P1;PMS_P2;Temp;Humidity;BMP_temperature;BMP_pressure;BME280_temperature;BME280_humidity;BME280_pressure;Samples;Min_cycle;Max_cycle;Signal;HPM_P1;HPM_P2
2023/02/11 00:01:33;;;;;;;49.20;18.90;;;;;;;-7.28;72.14;101218.83;106053;1296;24276;-77
2023/02/11 00:04:04;;;;;;;47.10;20.80;;;;;;;-7.31;72.28;101223.81;105962;1295;22596;-76
2023/02/11 00:06:34;;;;;;;46.80;17.40;;;;;;;-7.36;72.20;101227.45;106038;1296;24368;-76
2023/02/11 00:09:04;;;;;;;45.70;20.40;;;;;;;-7.43;70.90;101233.41;105844;1295;24336;-77
2023/02/11 00:11:32;;;;;;;45.10;19.10;;;;;;;-7.52;71.41;101237.40;106107;1296;25396;-77
2023/02/11 00:14:04;;;;;;;44.10;19.50;;;;;;;-7.56;71.88;101232.87;105997;1296;24279;-76
2023/02/11 00:16:32;;;;;;;45.80;20.90;;;;;;;-7.58;72.43;101236.39;106088;1296;24908;-76
2023/02/11 00:19:05;;;;;;;38.90;17.20;;;;;;;-7.60;72.12;101239.15;105933;1289;26140;-77
2023/02/11 00:21:33;;;;;;;46.10;19.90;;;;;;;-7.66;72.48;101238.01;105996;1296;22560;-76
2023/02/11 00:24:01;;;;;;;37.90;18.30;;;;;;;-7.69;71.47;101232.98;105611;1296;24950;-77
2023/02/11 00:26:33;;;;;;;51.70;22.20;;;;;;;-7.75;71.86;101235.83;105837;1272;23919;-76
2023/02/11 00:29:03;;;;;;;73.10;21.70;;;;;;;-7.76;72.47;101241.34;105877;1286;22685;-76
2023/02/11 00:31:32;;;;;;;48.20;19.20;;;;;;;-7.74;71.61;101238.30;105964;1296;22530;-77
2023/02/11 00:34:01;;;;;;;47.10;20.40;;;;;;;-7.79;71.32;101234.05;105975;1292;24251;-77
2023/02/11 00:36:30;;;;;;;52.20;20.00;;;;;;;-7.84;71.17;101238.88;106079;1296;23932;-76
2023/02/11 00:38:59;;;;;;;57.60;21.80;;;;;;;-7.85;71.00;101239.14;106134;1296;25368;-79
2023/02/11 00:41:29;;;;;;;52.60;20.60;;;;;;;-7.86;72.07;101242.35;106152;1293;22556;-78
2023/02/11 00:44:01;;;;;;;45.00;19.50;;;;;;;-7.85;72.65;101240.77;106092;1296;22503;-76
2023/02/11 00:46:29;;;;;;;44.90;18.00;;;;;;;-7.85;73.06;101240.48;106058;1296;23796;-77
2023/02/11 00:48:58;;;;;;;47.50;19.20;;;;;;;-7.82;73.07;101240.05;106114;1295;22882;-77
2023/02/11 00:51:27;;;;;;;40.10;19.10;;;;;;;-7.80;73.04;101236.85;106115;1289;22607;-77
2023/02/11 00:53:56;;;;;;;50.00;21.80;;;;;;;-7.81;72.74;101230.19;106074;1295;24102;-76
2023/02/11 00:56:25;;;;;;;40.20;20.50;;;;;;;-7.83;72.85;101229.04;105989;1296;22679;-76
2023/02/11 00:58:56;;;;;;;50.00;20.50;;;;;;;-7.85;72.91;101224.60;106068;1296;22565;-77
2023/02/11 01:01:25;;;;;;;61.30;21.50;;;;;;;-7.87;72.80;101217.95;106149;1297;25941;-77
2023/02/11 01:03:53;;;;;;;41.90;19.30;;;;;;;-7.91;72.25;101215.86;106043;1296;22547;-78
2023/02/11 01:06:23;;;;;;;46.10;20.40;;;;;;;-7.95;72.05;101218.42;105980;1296;22549;-77
2023/02/11 01:08:52;;;;;;;50.60;19.90;;;;;;;-7.98;72.42;101215.84;105907;1295;25428;-75
2023/02/11 01:11:21;;;;;;;58.60;22.90;;;;;;;-8.01;72.33;101211.86;105857;1296;23967;-76
2023/02/11 01:13:50;;;;;;;46.60;20.00;;;;;;;-8.04;72.67;101213.64;106167;1289;23884;-76
2023/02/11 01:16:18;;;;;;;49.10;22.20;;;;;;;-8.08;72.68;101205.76;106132;1293;22588;-76
2023/02/11 01:18:48;;;;;;;46.60;18.80;;;;;;;-8.06;71.78;101198.30;107349;1289;22609;-79
2023/02/11 01:21:18;;;;;;;49.00;20.20;;;;;;;-8.12;71.58;101197.96;108576;1296;22663;-77
2023/02/11 01:23:46;;;;;;;40.30;18.70;;;;;;;-8.13;72.53;101198.09;108341;1296;22583;-83
2023/02/11 01:26:15;;;;;;;47.00;16.80;;;;;;;-8.10;72.83;101192.09;108332;1296;23281;-79
2023/02/11 01:28:44;;;;;;;48.30;19.20;;;;;;;-8.11;72.97;101189.52;106862;1296;22587;-75
2023/02/11 01:31:13;;;;;;;41.20;18.00;;;;;;;-8.13;72.57;101192.71;105986;1296;24347;-76
2023/02/11 01:33:41;;;;;;;44.40;19.20;;;;;;;-8.14;72.85;101191.30;105986;1296;22606;-78
2023/02/11 01:36:11;;;;;;;72.40;22.40;;;;;;;-8.15;73.20;101189.48;106021;1285;23307;-76
2023/02/11 01:38:40;;;;;;;47.60;21.00;;;;;;;-8.18;73.04;101190.44;106050;1296;22604;-76
2023/02/11 01:41:11;;;;;;;43.40;18.90;;;;;;;-8.22;73.30;101192.33;106020;1296;25486;-76
2023/02/11 01:43:44;;;;;;;48.80;19.30;;;;;;;-8.24;74.17;101189.59;106067;1296;25647;-76
2023/02/11 01:46:35;;;;;;;48.20;19.20;;;;;;;-8.23;73.42;101186.22;106087;1296;22728;-77
2023/02/11 01:49:11;;;;;;;41.10;21.00;;;;;;;-8.27;72.35;101180.14;106046;1296;24241;-76
2023/02/11 01:52:06;;;;;;;40.70;18.20;;;;;;;-8.33;72.41;101174.20;105989;1296;22553;-78
2023/02/11 01:57:32;;;;;;;43.40;17.90;;;;;;;-8.39;73.16;101170.52;105984;1296;22542;-77
2023/02/11 02:00:20;;;;;;;41.30;17.60;;;;;;;-8.41;73.31;101170.09;106071;1296;22702;-76
2023/02/11 02:03:02;;;;;;;40.70;19.00;;;;;;;-8.46;73.43;101168.34;106179;1296;22559;-76
2023/02/11 02:05:41;;;;;;;43.30;19.20;;;;;;;-8.48;73.59;101168.16;106846;1296;22552;-77
2023/02/11 02:08:28;;;;;;;49.50;19.60;;;;;;;-8.49;72.64;101167.38;107046;1296;22573;-76
2023/02/11 02:10:59;;;;;;;38.30;18.50;;;;;;;-8.50;72.23;101169.66;106116;1289;25368;-75
2023/02/11 02:13:31;;;;;;;57.40;21.00;;;;;;;-8.49;72.73;101171.79;106254;1296;23706;-76
2023/02/11 02:16:05;;;;;;;50.50;21.40;;;;;;;-8.45;73.05;101170.89;106114;1296;22579;-76
2023/02/11 02:18:40;;;;;;;57.50;21.10;;;;;;;-8.40;73.66;101171.80;106108;1296;22663;-75
2023/02/11 02:22:00;;;;;;;39.10;17.10;;;;;;;-8.37;73.96;101168.48;106066;1296;22553;-76
2023/02/11 02:24:55;;;;;;;43.50;21.00;;;;;;;-8.32;74.47;101168.05;105958;1298;22703;-77
2023/02/11 02:28:01;;;;;;;40.80;18.20;;;;;;;-8.31;74.39;101164.96;105850;1298;25163;-75
2023/02/11 02:30:41;;;;;;;48.90;19.80;;;;;;;-8.27;74.44;101157.63;105983;1298;22635;-76
2023/02/11 02:33:51;;;;;;;50.50;18.60;;;;;;;-8.22;74.33;101154.67;105935;1298;22737;-76
2023/02/11 02:36:26;;;;;;;41.10;15.30;;;;;;;-8.19;73.81;101148.32;104992;1297;22584;-77
2023/02/11 02:39:03;;;;;;;74.20;18.10;;;;;;;-8.16;73.81;101147.65;105922;1298;22830;-79
2023/02/11 02:41:34;;;;;;;58.20;22.70;;;;;;;-8.14;73.19;101144.30;107577;1292;22483;-76
2023/02/11 02:44:03;;;;;;;64.20;21.00;;;;;;;-8.19;72.77;101141.73;107523;1298;22593;-77
2023/02/11 02:46:34;;;;;;;50.90;21.00;;;;;;;-8.22;73.01;101134.41;107450;1298;22552;-78
2023/02/11 02:49:06;;;;;;;34.30;16.60;;;;;;;-8.26;72.97;101133.63;107412;1298;23980;-81
2023/02/11 02:51:46;;;;;;;42.30;17.40;;;;;;;-8.31;72.81;101128.33;106587;1298;25262;-77
2023/02/11 02:54:47;;;;;;;46.20;21.10;;;;;;;-8.38;72.81;101127.24;106098;1298;26759;-76
2023/02/11 02:57:53;;;;;;;37.70;17.60;;;;;;;-8.48;72.66;101128.25;105580;1297;718103;-77
2023/02/11 03:00:41;;;;;;;48.20;19.20;;;;;;;-8.55;72.77;101128.02;106071;1296;22662;-75
2023/02/11 03:03:21;;;;;;;53.30;19.90;;;;;;;-8.63;73.84;101126.99;106115;1296;24387;-76
2023/02/11 03:05:57;;;;;;;40.80;17.60;;;;;;;-8.68;74.00;101123.24;105954;1296;22662;-77
2023/02/11 03:08:34;;;;;;;46.70;17.50;;;;;;;-8.72;73.55;101118.17;106413;1296;22618;-76
2023/02/11 03:11:05;;;;;;;50.70;21.40;;;;;;;-8.83;73.45;101115.97;106068;1296;22492;-77
2023/02/11 03:13:35;;;;;;;45.80;19.20;;;;;;;-8.89;74.59;101106.50;106137;1296;22555;-76
2023/02/11 03:16:11;;;;;;;38.50;17.80;;;;;;;-8.92;73.13;101108.98;105864;1296;22543;-78
2023/02/11 03:18:43;;;;;;;54.90;19.60;;;;;;;-8.99;74.20;101116.23;106261;1289;22792;-77
2023/02/11 03:21:14;;;;;;;23.90;14.60;;;;;;;-9.06;74.16;101116.37;105979;1296;22545;-78
2023/02/11 03:23:59;;;;;;;39.80;16.80;;;;;;;-9.12;73.23;101121.39;105978;1295;22632;-77
2023/02/11 03:26:33;;;;;;;47.60;19.90;;;;;;;-9.18;75.00;101119.48;105964;1296;23869;-77
2023/02/11 03:29:18;;;;;;;30.20;14.40;;;;;;;-9.19;75.16;101112.87;106107;1293;26715;-76
2023/02/11 03:31:55;;;;;;;37.50;17.30;;;;;;;-9.24;74.19;101112.81;106204;1296;23457;-77
2023/02/11 03:34:41;;;;;;;48.40;18.60;;;;;;;-9.29;73.60;101107.36;105961;1296;22584;-76
2023/02/11 03:37:44;;;;;;;40.20;17.50;;;;;;;-9.34;74.32;101105.91;106060;1295;22589;-76
2023/02/11 03:40:18;;;;;;;38.90;17.30;;;;;;;-9.38;73.85;101102.20;105852;1295;22676;-76
2023/02/11 03:42:59;;;;;;;33.80;16.00;;;;;;;-9.41;73.70;101102.64;106075;1297;25259;-76
2023/02/11 03:45:29;;;;;;;28.60;13.40;;;;;;;-9.40;73.10;101105.19;106044;1293;23912;-79
2023/02/11 03:48:10;;;;;;;46.60;19.00;;;;;;;-9.41;73.36;101107.16;106189;1296;22616;-75
2023/02/11 03:50:40;;;;;;;38.20;17.50;;;;;;;-9.37;73.81;101103.92;106035;1296;26688;-76
2023/02/11 03:53:10;;;;;;;35.50;17.30;;;;;;;-9.36;73.64;101110.77;106098;1295;23452;-78
2023/02/11 03:55:39;;;;;;;30.20;14.80;;;;;;;-9.34;73.55;101107.88;105959;1292;25676;-79
2023/02/11 03:58:08;;;;;;;54.50;18.70;;;;;;;-9.31;74.14;101105.34;106075;1296;22619;-77
2023/02/11 04:00:39;;;;;;;37.30;17.20;;;;;;;-9.25;74.19;101103.47;106084;1289;22565;-77
2023/02/11 04:03:10;;;;;;;35.70;15.80;;;;;;;-9.21;74.02;101100.29;105985;1288;22585;-78
2023/02/11 04:05:38;;;;;;;33.90;15.30;;;;;;;-9.19;73.97;101098.26;106269;1289;23186;-76
2023/02/11 04:08:08;;;;;;;48.60;15.70;;;;;;;-9.15;74.16;101099.30;106021;1296;22550;-76
2023/02/11 04:10:36;;;;;;;43.90;17.90;;;;;;;-9.09;74.09;101087.85;106151;1296;22777;-77
2023/02/11 04:13:04;;;;;;;49.40;24.10;;;;;;;-9.05;73.72;101086.55;105998;1295;22516;-76
2023/02/11 04:15:33;;;;;;;48.10;20.40;;;;;;;-9.07;73.51;101084.50;106098;1296;23191;-76
2023/02/11 04:18:02;;;;;;;40.60;17.30;;;;;;;-9.07;73.47;101087.76;106112;1296;22706;-77
2023/02/11 04:20:30;;;;;;;43.40;19.60;;;;;;;-9.09;72.93;101089.22;106108;1296;24314;-77
2023/02/11 04:22:59;;;;;;;36.60;17.00;;;;;;;-9.15;73.07;101093.89;106018;1296;22590;-76
2023/02/11 04:25:28;;;;;;;45.70;18.80;;;;;;;-9.17;73.30;101089.02;106047;1296;24073;-77
2023/02/11 04:27:56;;;;;;;54.60;19.30;;;;;;;-9.15;73.77;101088.98;106152;1289;24237;-78
2023/02/11 04:30:24;;;;;;;44.10;15.20;;;;;;;-9.10;74.08;101090.11;106121;1295;22645;-77
2023/02/11 04:32:55;;;;;;;32.60;16.50;;;;;;;-9.06;73.76;101089.48;106054;1296;22608;-77
2023/02/11 04:35:23;;;;;;;37.40;17.60;;;;;;;-9.02;73.12;101088.44;106049;1288;22803;-78
2023/02/11 04:37:52;;;;;;;34.90;17.10;;;;;;;-9.03;73.15;101088.06;106164;1293;22938;-76
2023/02/11 04:40:20;;;;;;;36.80;17.70;;;;;;;-9.01;73.18;101090.95;106034;1296;22558;-77
2023/02/11 04:42:48;;;;;;;29.50;14.10;;;;;;;-9.00;72.76;101092.49;106168;1293;22697;-77
2023/02/11 04:45:17;;;;;;;38.20;18.10;;;;;;;-9.04;72.63;101090.86;106127;1292;22907;-78
2023/02/11 04:47:45;;;;;;;35.90;16.30;;;;;;;-9.05;72.85;101087.36;106163;1292;22597;-77
2023/02/11 04:50:14;;;;;;;30.60;15.80;;;;;;;-9.09;73.03;101083.66;106280;1296;22558;-77
2023/02/11 04:52:42;;;;;;;43.30;17.60;;;;;;;-9.15;72.81;101085.98;106285;1289;23827;-77
2023/02/11 04:55:11;;;;;;;35.40;15.70;;;;;;;-9.16;73.03;101091.61;106072;1296;22682;-77
2023/02/11 04:57:40;;;;;;;35.20;18.00;;;;;;;-9.18;73.16;101080.42;107127;1288;24304;-76
2023/02/11 05:00:09;;;;;;;37.60;17.50;;;;;;;-9.18;73.21;101086.94;106191;1289;25454;-76
2023/02/11 05:02:37;;;;;;;40.10;17.40;;;;;;;-9.15;73.66;101087.02;106103;1296;26533;-75
2023/02/11 05:05:05;;;;;;;58.70;21.90;;;;;;;-9.09;73.88;101086.04;106039;1297;25271;-77
2023/02/11 05:07:34;;;;;;;43.00;20.40;;;;;;;-9.02;73.91;101085.77;106102;1296;22715;-76
2023/02/11 05:10:03;;;;;;;52.50;19.10;;;;;;;-8.99;73.58;101085.35;106136;1289;24062;-77
2023/02/11 05:12:32;;;;;;;44.10;15.10;;;;;;;-9.01;73.77;101083.34;106440;1295;24256;-76
2023/02/11 05:15:00;;;;;;;32.90;14.20;;;;;;;-9.05;73.62;101082.37;106447;1296;22548;-77
2023/02/11 05:17:29;;;;;;;34.40;16.00;;;;;;;-9.06;73.57;101076.88;106816;1296;24234;-77
2023/02/11 05:19:57;;;;;;;48.30;17.90;;;;;;;-9.14;73.07;101078.41;106699;1296;23194;-76
2023/02/11 05:22:25;;;;;;;33.80;17.00;;;;;;;-9.24;73.32;101069.27;106176;1295;22522;-76
2023/02/11 05:24:53;;;;;;;32.20;17.20;;;;;;;-9.29;74.25;101070.05;106105;1296;22590;-74
2023/02/11 05:27:22;;;;;;;34.10;15.40;;;;;;;-9.32;73.91;101073.00;106107;1296;25913;-77
2023/02/11 05:29:50;;;;;;;45.70;17.30;;;;;;;-9.41;73.00;101074.06;106126;1289;22595;-77
2023/02/11 05:32:18;;;;;;;31.30;15.20;;;;;;;-9.54;73.82;101076.96;106083;1296;22758;-77
2023/02/11 05:34:46;;;;;;;54.20;17.90;;;;;;;-9.59;73.65;101078.70;106102;1296;23297;-77
2023/02/11 05:37:14;;;;;;;44.80;20.00;;;;;;;-9.65;74.27;101081.63;106076;1295;23456;-76
2023/02/11 05:39:43;;;;;;;32.80;19.00;;;;;;;-9.66;74.44;101084.66;106101;1295;22799;-77
2023/02/11 05:42:12;;;;;;;43.10;18.50;;;;;;;-9.67;74.68;101085.80;106030;1297;22617;-76
2023/02/11 05:44:41;;;;;;;33.20;16.60;;;;;;;-9.66;75.30;101080.98;106125;1289;22548;-77
2023/02/11 05:47:09;;;;;;;35.50;14.60;;;;;;;-9.64;75.57;101089.38;106115;1296;24355;-77
2023/02/11 05:49:37;;;;;;;39.80;17.60;;;;;;;-9.63;75.08;101090.94;106071;1296;22604;-77
2023/02/11 05:52:05;;;;;;;27.60;15.10;;;;;;;-9.61;74.61;101089.80;105533;1297;23179;-77
2023/02/11 05:54:35;;;;;;;31.00;13.30;;;;;;;-9.63;75.06;101095.48;105933;1295;22549;-77
2023/02/11 05:57:03;;;;;;;33.50;16.20;;;;;;;-9.56;74.70;101101.10;106074;1295;22584;-77
2023/02/11 05:59:31;;;;;;;28.90;14.50;;;;;;;-9.57;74.71;101095.85;105948;1295;22549;-78
2023/02/11 06:02:00;;;;;;;36.80;17.10;;;;;;;-9.58;74.39;101099.95;106039;1296;22747;-77
2023/02/11 06:04:29;;;;;;;35.70;16.70;;;;;;;-9.58;74.96;101105.70;106052;1296;22678;-75
2023/02/11 06:06:57;;;;;;;40.90;18.20;;;;;;;-9.53;74.63;101099.90;106144;1296;22608;-77
2023/02/11 06:09:26;;;;;;;46.40;15.10;;;;;;;-9.51;74.68;101098.89;106137;1296;24296;-78
2023/02/11 06:11:54;;;;;;;40.10;18.50;;;;;;;-9.49;74.64;101100.39;106141;1296;24201;-77
2023/02/11 06:14:22;;;;;;;40.00;17.70;;;;;;;-9.44;74.46;101097.48;106179;1289;22571;-82
2023/02/11 06:16:51;;;;;;;57.90;16.50;;;;;;;-9.43;73.93;101098.27;106169;1295;22724;-75
2023/02/11 06:19:19;;;;;;;31.20;17.20;;;;;;;-9.39;74.81;101097.93;106190;1296;22545;-77
2023/02/11 06:21:47;;;;;;;33.90;19.60;;;;;;;-9.34;74.24;101094.80;107422;1296;22617;-81
2023/02/11 06:24:16;;;;;;;32.10;16.70;;;;;;;-9.26;74.88;101092.28;107501;1289;23113;-80
2023/02/11 06:27:05;;;;;;;37.70;16.60;;;;;;;-9.14;74.69;101085.72;107786;1295;22510;-77
2023/02/11 06:29:33;;;;;;;74.60;21.30;;;;;;;-9.10;74.51;101077.16;107456;1296;22568;-79
2023/02/11 06:32:01;;;;;;;39.80;19.20;;;;;;;-9.09;74.54;101077.59;106504;1295;22543;-77
2023/02/11 06:34:30;;;;;;;38.20;17.30;;;;;;;-9.05;74.31;101073.63;106325;1296;23892;-77
2023/02/11 06:36:59;;;;;;;48.80;19.60;;;;;;;-8.97;74.48;101072.89;106231;1293;25413;-77
2023/02/11 06:39:27;;;;;;;40.20;18.00;;;;;;;-8.92;74.47;101075.36;106162;1295;22843;-77
2023/02/11 06:41:55;;;;;;;41.40;14.90;;;;;;;-8.90;73.80;101082.37;106220;1285;22587;-77
2023/02/11 06:44:23;;;;;;;30.80;14.80;;;;;;;-8.92;73.76;101078.52;106126;1296;22685;-77
2023/02/11 06:46:52;;;;;;;38.20;16.70;;;;;;;-8.94;73.75;101078.17;106148;1296;25708;-78
2023/02/11 06:49:21;;;;;;;31.20;14.80;;;;;;;-8.99;73.76;101074.98;105996;1296;23268;-77
2023/02/11 06:51:49;;;;;;;46.50;14.00;;;;;;;-8.96;73.87;101072.78;106189;1296;22691;-76
2023/02/11 06:54:17;;;;;;;34.40;17.10;;;;;;;-8.98;74.16;101072.83;106198;1296;24795;-77
2023/02/11 06:56:46;;;;;;;45.80;19.20;;;;;;;-8.96;74.79;101067.29;106047;1296;22665;-76
2023/02/11 06:59:16;;;;;;;35.50;13.90;;;;;;;-8.89;75.10;101070.43;106265;1296;23777;-77
2023/02/11 07:01:44;;;;;;;37.10;15.40;;;;;;;-8.82;74.48;101070.98;106199;1296;27471;-76
2023/02/11 07:04:16;;;;;;;32.40;16.10;;;;;;;-8.78;74.12;101075.36;106213;1296;22568;-76
2023/02/11 07:06:44;;;;;;;42.00;18.00;;;;;;;-8.76;74.94;101072.14;106152;1296;25453;-76
2023/02/11 07:09:12;;;;;;;44.90;17.60;;;;;;;-8.70;75.95;101071.61;106028;1296;23959;-76
2023/02/11 07:11:41;;;;;;;42.80;16.80;;;;;;;-8.66;74.93;101075.52;106161;1296;22564;-76
2023/02/11 07:14:10;;;;;;;44.90;18.50;;;;;;;-8.62;75.62;101078.07;106168;1294;26614;-77
2023/02/11 07:16:38;;;;;;;45.20;19.60;;;;;;;-8.54;75.89;101069.45;106169;1285;22578;-79
2023/02/11 07:19:06;;;;;;;38.10;16.60;;;;;;;-8.47;76.17;101062.27;106257;1295;24360;-77
2023/02/11 07:21:35;;;;;;;48.20;18.80;;;;;;;-8.38;76.58;101058.91;106009;1296;23757;-77
2023/02/11 07:24:08;;;;;;;42.60;18.80;;;;;;;-8.28;75.68;101058.58;105866;1296;24313;-77
2023/02/11 07:26:38;;;;;;;51.60;20.90;;;;;;;-8.22;75.17;101054.16;105982;1296;22567;-80
2023/02/11 07:29:06;;;;;;;48.70;23.50;;;;;;;-8.16;75.29;101051.58;105890;1295;22539;-76
2023/02/11 07:31:35;;;;;;;54.10;24.10;;;;;;;-8.10;74.95;101046.55;105958;1296;25489;-75
2023/02/11 07:34:03;;;;;;;44.70;21.00;;;;;;;-8.05;75.03;101052.02;105921;1296;22555;-77
2023/02/11 07:36:32;;;;;;;49.10;21.30;;;;;;;-8.03;74.70;101050.38;105769;1296;25284;-78
2023/02/11 07:39:00;;;;;;;50.60;21.90;;;;;;;-7.97;75.15;101044.24;107630;1296;22579;-80
2023/02/11 07:41:29;;;;;;;58.30;23.30;;;;;;;-7.87;75.04;101041.65;107537;1296;25488;-76
2023/02/11 07:43:57;;;;;;;53.80;21.50;;;;;;;-7.79;75.08;101040.13;107809;1296;22605;-78
2023/02/11 07:46:26;;;;;;;41.40;18.70;;;;;;;-7.71;75.01;101036.36;108037;1296;22507;-78
2023/02/11 07:48:55;;;;;;;53.00;21.30;;;;;;;-7.66;74.89;101034.02;107767;1296;22568;-78
2023/02/11 07:51:26;;;;;;;48.60;22.80;;;;;;;-7.57;75.05;101030.90;106825;1296;25380;-77
2023/02/11 07:53:57;;;;;;;49.30;21.20;;;;;;;-7.47;74.87;101031.14;106358;1296;22597;-77
2023/02/11 07:56:27;;;;;;;41.20;19.20;;;;;;;-7.38;75.21;101031.36;105969;1273;23425;-77
2023/02/11 07:58:59;;;;;;;46.50;19.50;;;;;;;-7.26;74.95;101028.86;106453;1296;24244;-76
2023/02/11 08:01:29;;;;;;;41.50;19.20;;;;;;;-7.21;74.87;101024.61;106383;1296;26291;-77
2023/02/11 08:03:59;;;;;;;36.00;16.90;;;;;;;-7.11;74.66;101023.11;106180;1295;22548;-77
2023/02/11 08:06:30;;;;;;;48.50;21.20;;;;;;;-7.04;74.57;101021.15;106099;1295;22551;-77
2023/02/11 08:09:04;;;;;;;45.20;21.80;;;;;;;-6.98;74.88;101019.90;105966;1295;22561;-77
2023/02/11 08:11:32;;;;;;;54.60;21.00;;;;;;;-6.90;74.57;101021.66;105927;1295;22797;-76
2023/02/11 08:14:01;;;;;;;36.60;17.40;;;;;;;-6.84;74.39;101018.75;105863;1295;22658;-76
2023/02/11 08:16:34;;;;;;;37.10;15.90;;;;;;;-6.79;74.48;101017.95;105926;1295;27615;-77
2023/02/11 08:19:12;;;;;;;41.90;18.00;;;;;;;-6.74;74.22;101014.81;105777;1295;22956;-77
2023/02/11 08:21:42;;;;;;;48.90;18.20;;;;;;;-6.76;74.39;101014.64;105873;1296;25422;-77
2023/02/11 08:24:11;;;;;;;40.30;16.00;;;;;;;-6.73;74.45;101013.53;105906;1296;23384;-76
2023/02/11 08:26:39;;;;;;;47.00;18.40;;;;;;;-6.69;74.74;101009.95;105873;1295;24260;-78
2023/02/11 08:29:12;;;;;;;32.10;15.00;;;;;;;-6.63;74.72;101009.20;105929;1295;25711;-77
2023/02/11 08:31:43;;;;;;;40.70;17.10;;;;;;;-6.59;74.63;101012.02;105926;1295;22616;-77
2023/02/11 08:34:13;;;;;;;49.70;19.70;;;;;;;-6.51;74.80;101014.27;105882;1296;22668;-80
2023/02/11 08:36:42;;;;;;;35.10;16.00;;;;;;;-6.42;74.82;101014.48;106366;1297;22504;-77
2023/02/11 08:39:19;;;;;;;34.90;14.80;;;;;;;-6.31;74.61;101020.48;106401;1296;22543;-80
2023/02/11 08:41:53;;;;;;;31.30;14.70;;;;;;;-6.26;74.48;101017.17;107172;1297;22581;-78
2023/02/11 08:44:23;;;;;;;37.20;14.90;;;;;;;-6.15;74.60;101009.98;107550;1297;24458;-80
2023/02/11 08:46:51;;;;;;;26.50;11.90;;;;;;;-6.04;74.45;101006.59;106225;1296;22563;-76
2023/02/11 08:49:20;;;;;;;31.50;13.90;;;;;;;-5.92;74.29;101000.16;106077;1293;25303;-77
2023/02/11 08:51:49;;;;;;;26.00;11.20;;;;;;;-5.80;73.96;100993.70;106077;1296;22567;-77
2023/02/11 08:54:17;;;;;;;24.80;10.30;;;;;;;-5.71;73.04;100992.64;106046;1296;22997;-78
2023/02/11 08:56:50;;;;;;;30.10;9.70;;;;;;;-5.66;71.92;100990.33;105999;1289;22575;-77
2023/02/11 08:59:18;;;;;;;25.70;10.70;;;;;;;-5.58;71.99;100988.81;105891;1281;23915;-77
2023/02/11 09:01:47;;;;;;;24.90;10.70;;;;;;;-5.54;71.49;100988.13;105679;1296;25424;-77
2023/02/11 09:04:16;;;;;;;22.10;10.40;;;;;;;-5.41;71.96;100986.95;106018;1293;22565;-79
2023/02/11 09:06:45;;;;;;;25.30;11.10;;;;;;;-5.29;72.17;100984.90;105901;1296;22577;-78
2023/02/11 09:09:15;;;;;;;28.70;11.60;;;;;;;-5.18;71.93;100982.46;106090;1295;24057;-77
2023/02/11 09:11:44;;;;;;;28.50;11.10;;;;;;;-5.06;71.75;100979.91;105881;1296;22546;-78
2023/02/11 09:14:19;;;;;;;28.50;11.80;;;;;;;-4.94;71.66;100971.34;105981;1289;22597;-77
2023/02/11 09:16:49;;;;;;;32.80;9.10;;;;;;;-4.83;71.24;100968.95;105823;1296;25304;-78
2023/02/11 09:19:18;;;;;;;26.40;9.30;;;;;;;-4.75;70.95;100965.36;106020;1296;23104;-77
2023/02/11 09:21:46;;;;;;;22.50;10.40;;;;;;;-4.77;70.83;100965.89;106075;1296;22586;-77
2023/02/11 09:24:15;;;;;;;26.60;10.40;;;;;;;-4.80;70.43;100958.25;106056;1296;25464;-77
2023/02/11 09:26:43;;;;;;;32.00;12.70;;;;;;;-4.73;70.92;100958.06;105899;1296;25439;-79
2023/02/11 09:29:12;;;;;;;30.40;11.70;;;;;;;-4.67;70.69;100954.89;105938;1296;23769;-78
2023/02/11 09:31:40;;;;;;;34.90;12.50;;;;;;;-4.63;70.55;100951.10;106164;1296;25351;-79
2023/02/11 09:34:10;;;;;;;31.90;10.90;;;;;;;-4.59;70.42;100944.76;107501;1297;22579;-79
2023/02/11 09:36:40;;;;;;;22.90;9.70;;;;;;;-4.51;70.42;100937.64;107769;1297;22602;-79
2023/02/11 09:39:13;;;;;;;26.60;11.40;;;;;;;-4.43;70.85;100928.03;107645;1297;22695;-78
2023/02/11 09:42:12;;;;;;;24.80;10.70;;;;;;;-4.34;70.18;100926.38;107592;1286;22563;-78
2023/02/11 09:44:44;;;;;;;28.90;11.10;;;;;;;-4.25;69.81;100923.60;106734;1297;22788;-78
2023/02/11 09:47:38;;;;;;;22.50;9.90;;;;;;;-4.15;69.72;100922.52;106264;1297;25484;-78
2023/02/11 09:50:13;;;;;;;21.90;10.50;;;;;;;-4.05;68.65;100923.00;106157;1297;23105;-78
2023/02/11 09:52:51;;;;;;;31.10;11.00;;;;;;;-3.90;69.50;100917.96;107242;1297;22576;-78
2023/02/11 09:55:29;;;;;;;26.00;10.20;;;;;;;-3.78;68.42;100907.73;106374;1297;22552;-78
2023/02/11 09:57:58;;;;;;;26.70;10.60;;;;;;;-3.66;68.69;100906.59;106096;1297;25454;-79
2023/02/11 10:00:48;;;;;;;27.80;10.30;;;;;;;-3.54;68.62;100900.83;105902;1297;22739;-78
2023/02/11 10:03:22;;;;;;;29.20;9.40;;;;;;;-3.45;68.63;100896.33;106149;1276;24038;-78
2023/02/11 10:06:11;;;;;;;25.30;10.10;;;;;;;-3.32;68.65;100885.88;106107;1297;22726;-77
2023/02/11 10:08:52;;;;;;;30.70;10.50;;;;;;;-3.21;67.77;100866.85;105829;1297;22510;-78
2023/02/11 10:11:33;;;;;;;32.30;11.70;;;;;;;-3.01;67.42;100857.48;106086;1297;22647;-79
2023/02/11 10:14:20;;;;;;;32.90;12.80;;;;;;;-2.85;67.42;100844.68;106076;1297;22559;-80
2023/02/11 10:17:13;;;;;;;27.10;10.30;;;;;;;-2.70;67.07;100838.21;106066;1297;22631;-78
2023/02/11 10:20:10;;;;;;;25.30;9.50;;;;;;;-2.57;66.06;100828.95;106086;1297;22596;-78
2023/02/11 10:22:51;;;;;;;19.70;7.80;;;;;;;-2.40;64.74;100829.33;105757;1297;22592;-78
2023/02/11 10:25:43;;;;;;;18.00;8.00;;;;;;;-2.29;62.91;100823.48;106006;1288;22552;-78
2023/02/11 10:28:19;;;;;;;25.50;7.70;;;;;;;-2.19;63.06;100817.05;107921;1297;22683;-79
2023/02/11 10:31:00;;;;;;;20.60;6.60;;;;;;;-2.05;62.55;100812.02;106214;1297;25419;-78
2023/02/11 10:33:50;;;;;;;24.80;8.00;;;;;;;-1.95;61.95;100802.55;105986;1296;23875;-77
2023/02/11 10:36:23;;;;;;;18.90;6.80;;;;;;;-1.78;60.90;100797.98;106008;1295;22571;-79
2023/02/11 10:38:51;;;;;;;20.70;7.60;;;;;;;-1.66;60.25;100799.09;105685;1296;25310;-78
2023/02/11 10:41:25;;;;;;;19.70;7.80;;;;;;;-1.54;60.32;100794.25;105855;1295;22671;-79
2023/02/11 10:43:54;;;;;;;17.60;7.70;;;;;;;-1.46;59.50;100777.66;106044;1296;22558;-77
2023/02/11 10:46:30;;;;;;;20.00;8.60;;;;;;;-1.33;60.45;100765.02;106008;1296;22653;-78
2023/02/11 10:48:59;;;;;;;18.70;8.30;;;;;;;-1.18;60.72;100762.73;106317;1296;22560;-77
2023/02/11 10:51:32;;;;;;;21.00;8.50;;;;;;;-1.05;60.38;100762.17;105953;1296;24225;-78
2023/02/11 10:54:04;;;;;;;25.50;9.10;;;;;;;-0.91;60.44;100751.95;106152;1296;22697;-82
2023/02/11 10:56:35;;;;;;;26.20;8.70;;;;;;;-0.78;59.59;100748.48;105972;1296;25991;-78
2023/02/11 10:59:16;;;;;;;28.20;9.10;;;;;;;-0.69;59.32;100747.18;105966;1296;22613;-78
2023/02/11 11:02:04;;;;;;;25.70;9.70;;;;;;;-0.57;59.28;100742.63;105993;1285;22745;-78
2023/02/11 11:04:43;;;;;;;25.50;8.90;;;;;;;-0.44;59.46;100745.42;105811;1296;25437;-77
2023/02/11 11:07:28;;;;;;;22.50;8.10;;;;;;;-0.30;59.20;100738.90;106030;1292;23410;-77
2023/02/11 11:10:03;;;;;;;25.30;9.60;;;;;;;-0.17;58.28;100733.66;105968;1296;24499;-78
2023/02/11 11:12:34;;;;;;;22.90;9.60;;;;;;;-0.07;58.54;100724.27;106775;1296;23967;-78
2023/02/11 11:15:17;;;;;;;20.00;8.30;;;;;;;0.03;57.70;100715.84;105913;1296;22557;-79
2023/02/11 11:17:48;;;;;;;21.80;9.50;;;;;;;0.16;58.09;100716.56;105907;1296;22548;-79
2023/02/11 11:20:35;;;;;;;25.60;10.10;;;;;;;0.30;57.46;100719.04;105911;1292;22582;-79
2023/02/11 11:23:16;;;;;;;28.50;11.00;;;;;;;0.39;57.05;100723.83;105885;1289;22553;-78
2023/02/11 11:26:08;;;;;;;28.30;11.40;;;;;;;0.51;57.02;100722.64;105832;1289;23523;-79
2023/02/11 11:28:45;;;;;;;28.70;11.50;;;;;;;0.70;56.24;100724.75;105830;1296;23046;-79
2023/02/11 11:31:19;;;;;;;27.00;10.30;;;;;;;0.85;56.02;100714.80;105805;1296;25367;-79